sensor_id;sensor_type;location;lat;lon;timestamp;pressure;altitude;pressure_sealevel;temperature;humidity
57232;BME280;43488;46.934;8.276;2023-08-07T00:00:19;96736.38;;;13.05;100.00
57232;BME280;43488;46.934;8.276;2023-08-07T00:02:46;96741.66;;;13.05;100.00
57232;BME280;43488;46.934;8.276;2023-08-07T00:05:13;96742.91;;;13.03;100.00
57232;BME280;43488;46.934;8.276;2023-08-07T00:07:41;96746.81;;;13.00;100.00
57232;BME280;43488;46.934;8.276;2023-08-07T00:10:09;96729.91;;;13.01;100.00
57232;BME280;43488;46.934;8.276;2023-08-07T00:12:36;96732.16;;;12.98;100.00
57232;BME280;43488;46.934;8.276;2023-08-07T00:15:04;96731.97;;;12.99;100.00
57232;BME280;43488;46.934;8.276;2023-08-07T00:17:31;96744.97;;;13.01;100.00
57232;BME280;43488;46.934;8.276;2023-08-07T00:20:00;96754.09;;;12.98;100.00
57232;BME280;43488;46.934;8.276;2023-08-07T00:22:27;96764.09;;;12.96;100.00
57232;BME280;43488;46.934;8.276;2023-08-07T00:24:56;96759.03;;;12.95;98.52
57232;BME280;43488;46.934;8.276;2023-08-07T00:27:25;96755.94;;;12.98;97.29
57232;BME280;43488;46.934;8.276;2023-08-07T00:29:52;96765.44;;;13.05;98.05
57232;BME280;43488;46.934;8.276;2023-08-07T00:32:19;96766.91;;;13.01;100.00
57232;BME280;43488;46.934;8.276;2023-08-07T00:34:46;96761.66;;;12.95;99.01
57232;BME280;43488;46.934;8.276;2023-08-07T00:37:14;96774.28;;;12.93;96.26
57232;BME280;43488;46.934;8.276;2023-08-07T00:39:42;96778.59;;;12.87;100.00
57232;BME280;43488;46.934;8.276;2023-08-07T00:42:10;96787.34;;;12.88;100.00
57232;BME280;43488;46.934;8.276;2023-08-07T00:44:38;96785.94;;;12.85;100.00
57232;BME280;43488;46.934;8.276;2023-08-07T00:47:06;96791.81;;;12.87;100.00
57232;BME280;43488;46.934;8.276;2023-08-07T00:49:34;96787.78;;;12.85;100.00
57232;BME280;43488;46.934;8.276;2023-08-07T00:52:02;96786.97;;;12.84;100.00
57232;BME280;43488;46.934;8.276;2023-08-07T00:54:30;96782.59;;;12.71;100.00
57232;BME280;43488;46.934;8.276;2023-08-07T00:57:11;96769.56;;;12.70;100.00
57232;BME280;43488;46.934;8.276;2023-08-07T00:59:39;96760.28;;;12.61;100.00
57232;BME280;43488;46.934;8.276;2023-08-07T01:02:07;96769.09;;;12.55;100.00
57232;BME280;43488;46.934;8.276;2023-08-07T01:04:35;96772.53;;;12.55;99.58
57232;BME280;43488;46.934;8.276;2023-08-07T01:07:03;96780.59;;;12.60;96.48
57232;BME280;43488;46.934;8.276;2023-08-07T01:09:31;96778.19;;;12.59;95.64
57232;BME280;43488;46.934;8.276;2023-08-07T01:12:36;96773.94;;;12.58;93.47
57232;BME280;43488;46.934;8.276;2023-08-07T01:15:16;96773.72;;;12.59;97.51
57232;BME280;43488;46.934;8.276;2023-08-07T01:17:46;96776.56;;;12.58;100.00
57232;BME280;43488;46.934;8.276;2023-08-07T01:20:14;96772.94;;;12.52;100.00
57232;BME280;43488;46.934;8.276;2023-08-07T01:22:41;96784.97;;;12.48;99.90
57232;BME280;43488;46.934;8.276;2023-08-07T01:25:09;96788.41;;;12.48;99.30
57232;BME280;43488;46.934;8.276;2023-08-07T01:27:42;96778.88;;;12.47;100.00
57232;BME280;43488;46.934;8.276;2023-08-07T01:30:19;96777.84;;;12.48;99.97
57232;BME280;43488;46.934;8.276;2023-08-07T01:33:39;96786.00;;;12.47;100.00
57232;BME280;43488;46.934;8.276;2023-08-07T01:36:10;96786.78;;;12.47;100.00
57232;BME280;43488;46.934;8.276;2023-08-07T01:38:39;96783.31;;;12.53;100.00
57232;BME280;43488;46.934;8.276;2023-08-07T01:41:08;96781.03;;;12.57;100.00
57232;BME280;43488;46.934;8.276;2023-08-07T01:43:36;96777.00;;;12.55;100.00
57232;BME280;43488;46.934;8.276;2023-08-07T01:46:04;96778.44;;;12.50;100.00
57232;BME280;43488;46.934;8.276;2023-08-07T01:48:34;96774.66;;;12.40;100.00
57232;BME280;43488;46.934;8.276;2023-08-07T01:51:01;96770.81;;;12.36;100.00
57232;BME280;43488;46.934;8.276;2023-08-07T01:53:29;96768.56;;;12.39;100.00
57232;BME280;43488;46.934;8.276;2023-08-07T01:55:57;96770.75;;;12.42;100.00
57232;BME280;43488;46.934;8.276;2023-08-07T01:58:24;96776.66;;;12.44;100.00
57232;BME280;43488;46.934;8.276;2023-08-07T02:00:53;96780.72;;;12.40;100.00
57232;BME280;43488;46.934;8.276;2023-08-07T02:03:21;96774.22;;;12.43;100.00
57232;BME280;43488;46.934;8.276;2023-08-07T02:05:48;96778.88;;;12.47;100.00
57232;BME280;43488;46.934;8.276;2023-08-07T02:08:15;96777.63;;;12.50;100.00
57232;BME280;43488;46.934;8.276;2023-08-07T02:10:42;96776.38;;;12.52;100.00
57232;BME280;43488;46.934;8.276;2023-08-07T02:13:10;96779.22;;;12.58;100.00
57232;BME280;43488;46.934;8.276;2023-08-07T02:15:38;96776.78;;;12.56;100.00
57232;BME280;43488;46.934;8.276;2023-08-07T02:18:05;96785.53;;;12.57;100.00
57232;BME280;43488;46.934;8.276;2023-08-07T02:20:32;96780.81;;;12.59;100.00
57232;BME280;43488;46.934;8.276;2023-08-07T02:23:00;96785.88;;;12.60;100.00
57232;BME280;43488;46.934;8.276;2023-08-07T02:25:27;96786.31;;;12.57;100.00
57232;BME280;43488;46.934;8.276;2023-08-07T02:27:55;96780.06;;;12.51;100.00
57232;BME280;43488;46.934;8.276;2023-08-07T02:30:22;96780.84;;;12.52;100.00
57232;BME280;43488;46.934;8.276;2023-08-07T02:32:50;96786.34;;;12.50;100.00
57232;BME280;43488;46.934;8.276;2023-08-07T02:35:18;96777.84;;;12.48;100.00
57232;BME280;43488;46.934;8.276;2023-08-07T02:37:46;96779.91;;;12.46;100.00
57232;BME280;43488;46.934;8.276;2023-08-07T02:40:13;96771.97;;;12.46;100.00
57232;BME280;43488;46.934;8.276;2023-08-07T02:42:43;96771.38;;;12.44;100.00
57232;BME280;43488;46.934;8.276;2023-08-07T02:45:11;96766.69;;;12.46;100.00
57232;BME280;43488;46.934;8.276;2023-08-07T02:47:39;96776.22;;;12.47;100.00
57232;BME280;43488;46.934;8.276;2023-08-07T02:50:07;96755.69;;;12.49;100.00
57232;BME280;43488;46.934;8.276;2023-08-07T02:52:35;96758.13;;;12.51;100.00
57232;BME280;43488;46.934;8.276;2023-08-07T02:55:03;96760.81;;;12.44;100.00
57232;BME280;43488;46.934;8.276;2023-08-07T02:57:31;96770.94;;;12.47;100.00
57232;BME280;43488;46.934;8.276;2023-08-07T02:59:58;96774.59;;;12.53;100.00
57232;BME280;43488;46.934;8.276;2023-08-07T03:02:26;96767.84;;;12.57;100.00
57232;BME280;43488;46.934;8.276;2023-08-07T03:04:53;96763.97;;;12.60;100.00
57232;BME280;43488;46.934;8.276;2023-08-07T03:07:20;96770.91;;;12.54;100.00
57232;BME280;43488;46.934;8.276;2023-08-07T03:09:48;96768.28;;;12.54;100.00
57232;BME280;43488;46.934;8.276;2023-08-07T03:12:20;96775.56;;;12.52;100.00
57232;BME280;43488;46.934;8.276;2023-08-07T03:14:48;96777.00;;;12.55;100.00
57232;BME280;43488;46.934;8.276;2023-08-07T03:17:16;96779.03;;;12.52;100.00
57232;BME280;43488;46.934;8.276;2023-08-07T03:19:43;96784.75;;;12.49;100.00
57232;BME280;43488;46.934;8.276;2023-08-07T03:22:11;96771.16;;;12.46;100.00
57232;BME280;43488;46.934;8.276;2023-08-07T03:24:39;96779.03;;;12.52;100.00
57232;BME280;43488;46.934;8.276;2023-08-07T03:27:07;96781.50;;;12.47;100.00
57232;BME280;43488;46.934;8.276;2023-08-07T03:29:34;96787.00;;;12.46;100.00
57232;BME280;43488;46.934;8.276;2023-08-07T03:32:01;96777.84;;;12.48;100.00
57232;BME280;43488;46.934;8.276;2023-08-07T03:34:29;96771.72;;;12.55;100.00
57232;BME280;43488;46.934;8.276;2023-08-07T03:36:57;96777.84;;;12.48;100.00
57232;BME280;43488;46.934;8.276;2023-08-07T03:39:26;96779.47;;;12.49;100.00
57232;BME280;43488;46.934;8.276;2023-08-07T03:41:54;96778.66;;;12.49;100.00
57232;BME280;43488;46.934;8.276;2023-08-07T03:44:21;96785.56;;;12.50;96.82
57232;BME280;43488;46.934;8.276;2023-08-07T03:46:48;96808.34;;;12.44;100.00
57232;BME280;43488;46.934;8.276;2023-08-07T03:49:16;96789.69;;;12.39;98.31
57232;BME280;43488;46.934;8.276;2023-08-07T03:51:43;96793.50;;;12.43;100.00
57232;BME280;43488;46.934;8.276;2023-08-07T03:54:11;96795.75;;;12.46;100.00
57232;BME280;43488;46.934;8.276;2023-08-07T03:56:39;96801.44;;;12.43;100.00
57232;BME280;43488;46.934;8.276;2023-08-07T03:59:08;96796.56;;;12.40;100.00
57232;BME280;43488;46.934;8.276;2023-08-07T04:01:36;96795.41;;;12.36;100.00
57232;BME280;43488;46.934;8.276;2023-08-07T04:04:03;96780.75;;;12.34;100.00
57232;BME280;43488;46.934;8.276;2023-08-07T04:06:30;96771.06;;;12.28;100.00
57232;BME280;43488;46.934;8.276;2023-08-07T04:08:58;96767.84;;;12.26;100.00
57232;BME280;43488;46.934;8.276;2023-08-07T04:11:28;96769.63;;;12.25;100.00
57232;BME280;43488;46.934;8.276;2023-08-07T04:13:55;96787.94;;;12.27;100.00
57232;BME280;43488;46.934;8.276;2023-08-07T04:16:22;96786.31;;;12.26;100.00
57232;BME280;43488;46.934;8.276;2023-08-07T04:18:51;96784.25;;;12.28;100.00
57232;BME280;43488;46.934;8.276;2023-08-07T04:21:18;96788.13;;;12.25;100.00
57232;BME280;43488;46.934;8.276;2023-08-07T04:23:45;96792.59;;;12.24;100.00
57232;BME280;43488;46.934;8.276;2023-08-07T04:26:13;96788.53;;;12.22;100.00
57232;BME280;43488;46.934;8.276;2023-08-07T04:28:42;96799.50;;;12.26;100.00
57232;BME280;43488;46.934;8.276;2023-08-07T04:31:09;96796.81;;;12.32;100.00
57232;BME280;43488;46.934;8.276;2023-08-07T04:33:36;96795.41;;;12.36;100.00
57232;BME280;43488;46.934;8.276;2023-08-07T04:36:04;96798.44;;;12.33;100.00
57232;BME280;43488;46.934;8.276;2023-08-07T04:38:32;96798.25;;;12.35;100.00
57232;BME280;43488;46.934;8.276;2023-08-07T04:40:59;96793.38;;;12.32;100.00
57232;BME280;43488;46.934;8.276;2023-08-07T04:43:26;96801.28;;;12.32;100.00
57232;BME280;43488;46.934;8.276;2023-08-07T04:45:55;96807.97;;;12.34;100.00
57232;BME280;43488;46.934;8.276;2023-08-07T04:48:22;96803.53;;;12.35;100.00
57232;BME280;43488;46.934;8.276;2023-08-07T04:50:52;96803.91;;;12.38;100.00
57232;BME280;43488;46.934;8.276;2023-08-07T04:53:19;96809.19;;;12.38;100.00
57232;BME280;43488;46.934;8.276;2023-08-07T04:55:46;96809.78;;;12.40;100.00
57232;BME280;43488;46.934;8.276;2023-08-07T04:58:14;96815.03;;;12.47;100.00
57232;BME280;43488;46.934;8.276;2023-08-07T05:00:41;96822.31;;;12.51;100.00
57232;BME280;43488;46.934;8.276;2023-08-07T05:03:09;96814.78;;;12.55;100.00
57232;BME280;43488;46.934;8.276;2023-08-07T05:05:36;96815.00;;;12.53;100.00
57232;BME280;43488;46.934;8.276;2023-08-07T05:08:04;96820.69;;;12.50;100.00
57232;BME280;43488;46.934;8.276;2023-08-07T05:10:31;96821.72;;;12.49;100.00
57232;BME280;43488;46.934;8.276;2023-08-07T05:12:59;96816.84;;;12.53;100.00
57232;BME280;43488;46.934;8.276;2023-08-07T05:15:26;96806.69;;;12.50;100.00
57232;BME280;43488;46.934;8.276;2023-08-07T05:17:56;96812.59;;;12.45;100.00
57232;BME280;43488;46.934;8.276;2023-08-07T05:20:23;96816.28;;;12.38;100.00
57232;BME280;43488;46.934;8.276;2023-08-07T05:22:51;96818.09;;;12.44;100.00
57232;BME280;43488;46.934;8.276;2023-08-07T05:25:18;96819.09;;;12.43;100.00
57232;BME280;43488;46.934;8.276;2023-08-07T05:27:46;96811.97;;;12.43;100.00
57232;BME280;43488;46.934;8.276;2023-08-07T05:30:14;96821.56;;;12.44;100.00
57232;BME280;43488;46.934;8.276;2023-08-07T05:32:41;96817.47;;;12.48;100.00
57232;BME280;43488;46.934;8.276;2023-08-07T05:35:09;96805.28;;;12.47;100.00
57232;BME280;43488;46.934;8.276;2023-08-07T05:37:37;96815.63;;;12.49;100.00
57232;BME280;43488;46.934;8.276;2023-08-07T05:40:05;96824.78;;;12.46;100.00
57232;BME280;43488;46.934;8.276;2023-08-07T05:42:33;96827.00;;;12.49;100.00
57232;BME280;43488;46.934;8.276;2023-08-07T05:45:01;96819.09;;;12.43;100.00
57232;BME280;43488;46.934;8.276;2023-08-07T05:47:29;96820.75;;;12.44;100.00
57232;BME280;43488;46.934;8.276;2023-08-07T05:49:57;96814.38;;;12.51;100.00
57232;BME280;43488;46.934;8.276;2023-08-07T05:52:24;96811.94;;;12.57;100.00
57232;BME280;43488;46.934;8.276;2023-08-07T05:54:52;96809.44;;;12.62;100.00
57232;BME280;43488;46.934;8.276;2023-08-07T05:57:19;96826.56;;;12.52;100.00
57232;BME280;43488;46.934;8.276;2023-08-07T05:59:47;96814.94;;;12.60;100.00
57232;BME280;43488;46.934;8.276;2023-08-07T06:02:15;96822.41;;;12.70;100.00
57232;BME280;43488;46.934;8.276;2023-08-07T06:04:42;96814.81;;;12.80;100.00
57232;BME280;43488;46.934;8.276;2023-08-07T06:07:10;96816.19;;;12.89;100.00
57232;BME280;43488;46.934;8.276;2023-08-07T06:09:37;96822.00;;;12.98;100.00
57232;BME280;43488;46.934;8.276;2023-08-07T06:12:07;96821.19;;;12.97;100.00
57232;BME280;43488;46.934;8.276;2023-08-07T06:14:37;96825.28;;;13.00;100.00
57232;BME280;43488;46.934;8.276;2023-08-07T06:17:04;96829.91;;;13.04;100.00
57232;BME280;43488;46.934;8.276;2023-08-07T06:19:31;96824.56;;;13.11;100.00
57232;BME280;43488;46.934;8.276;2023-08-07T06:21:59;96814.97;;;13.17;100.00
57232;BME280;43488;46.934;8.276;2023-08-07T06:24:27;96819.63;;;13.21;100.00
57232;BME280;43488;46.934;8.276;2023-08-07T06:26:54;96830.44;;;13.20;100.00
57232;BME280;43488;46.934;8.276;2023-08-07T06:29:22;96823.69;;;13.24;97.22
57232;BME280;43488;46.934;8.276;2023-08-07T06:31:49;96827.75;;;13.26;97.36
57232;BME280;43488;46.934;8.276;2023-08-07T06:34:17;96826.84;;;13.32;98.99
57232;BME280;43488;46.934;8.276;2023-08-07T06:36:45;96831.94;;;13.34;94.75
57232;BME280;43488;46.934;8.276;2023-08-07T06:39:12;96835.78;;;13.38;96.16
57232;BME280;43488;46.934;8.276;2023-08-07T06:41:41;96837.16;;;13.41;95.32
57232;BME280;43488;46.934;8.276;2023-08-07T06:44:09;96839.19;;;13.45;96.55
57232;BME280;43488;46.934;8.276;2023-08-07T06:46:36;96843.44;;;13.46;96.17
57232;BME280;43488;46.934;8.276;2023-08-07T06:49:04;96837.69;;;13.49;96.28
57232;BME280;43488;46.934;8.276;2023-08-07T06:51:32;96854.00;;;13.46;96.00
57232;BME280;43488;46.934;8.276;2023-08-07T06:54:00;96859.31;;;13.46;94.03
57232;BME280;43488;46.934;8.276;2023-08-07T06:56:27;96849.94;;;13.44;92.44
57232;BME280;43488;46.934;8.276;2023-08-07T06:58:55;96859.41;;;13.33;89.26
57232;BME280;43488;46.934;8.276;2023-08-07T07:01:22;96859.78;;;13.36;89.24
57232;BME280;43488;46.934;8.276;2023-08-07T07:03:50;96856.97;;;13.31;90.49
57232;BME280;43488;46.934;8.276;2023-08-07T07:06:20;96858.38;;;13.34;89.80
57232;BME280;43488;46.934;8.276;2023-08-07T07:08:48;96866.16;;;13.29;87.53
57232;BME280;43488;46.934;8.276;2023-08-07T07:11:15;96867.41;;;13.26;83.65
57232;BME280;43488;46.934;8.276;2023-08-07T07:13:42;96866.97;;;13.29;82.58
57232;BME280;43488;46.934;8.276;2023-08-07T07:16:10;96864.94;;;13.25;80.26
57232;BME280;43488;46.934;8.276;2023-08-07T07:18:41;96880.56;;;13.33;80.33
57232;BME280;43488;46.934;8.276;2023-08-07T07:21:09;96883.19;;;13.33;80.15
57232;BME280;43488;46.934;8.276;2023-08-07T07:23:38;96877.09;;;13.32;80.08
57232;BME280;43488;46.934;8.276;2023-08-07T07:26:06;96880.13;;;13.36;80.75
57232;BME280;43488;46.934;8.276;2023-08-07T07:28:33;96881.53;;;13.38;79.01
57232;BME280;43488;46.934;8.276;2023-08-07T07:31:01;96875.16;;;13.46;81.12
57232;BME280;43488;46.934;8.276;2023-08-07T07:33:29;96880.59;;;13.51;79.69
57232;BME280;43488;46.934;8.276;2023-08-07T07:35:58;96879.94;;;13.62;78.66
57232;BME280;43488;46.934;8.276;2023-08-07T07:38:25;96875.81;;;13.66;78.25
57232;BME280;43488;46.934;8.276;2023-08-07T07:40:54;96880.66;;;13.70;77.04
57232;BME280;43488;46.934;8.276;2023-08-07T07:43:24;96879.78;;;13.76;77.20
57232;BME280;43488;46.934;8.276;2023-08-07T07:45:51;96878.31;;;13.80;76.48
57232;BME280;43488;46.934;8.276;2023-08-07T07:48:19;96880.16;;;13.79;76.54
57232;BME280;43488;46.934;8.276;2023-08-07T07:50:47;96882.91;;;13.91;74.30
57232;BME280;43488;46.934;8.276;2023-08-07T07:53:14;96877.97;;;13.94;73.40
57232;BME280;43488;46.934;8.276;2023-08-07T07:55:47;96877.41;;;13.92;72.76
57232;BME280;43488;46.934;8.276;2023-08-07T07:58:15;96877.34;;;13.99;72.41
57232;BME280;43488;46.934;8.276;2023-08-07T08:00:43;96879.97;;;13.99;74.15
57232;BME280;43488;46.934;8.276;2023-08-07T08:03:11;96871.09;;;14.12;72.99
57232;BME280;43488;46.934;8.276;2023-08-07T08:05:40;96881.50;;;14.07;70.59
57232;BME280;43488;46.934;8.276;2023-08-07T08:08:08;96892.31;;;14.05;70.37
57232;BME280;43488;46.934;8.276;2023-08-07T08:10:36;96889.84;;;14.10;70.14
57232;BME280;43488;46.934;8.276;2023-08-07T08:13:03;96886.28;;;14.16;71.52
57232;BME280;43488;46.934;8.276;2023-08-07T08:15:31;96894.31;;;14.28;69.66
57232;BME280;43488;46.934;8.276;2023-08-07T08:17:58;96886.16;;;14.30;69.76
57232;BME280;43488;46.934;8.276;2023-08-07T08:20:26;96894.97;;;14.42;66.27
57232;BME280;43488;46.934;8.276;2023-08-07T08:22:53;96889.34;;;14.57;66.87
57232;BME280;43488;46.934;8.276;2023-08-07T08:25:21;96895.72;;;14.67;66.65
57232;BME280;43488;46.934;8.276;2023-08-07T08:27:48;96898.09;;;14.87;68.69
57232;BME280;43488;46.934;8.276;2023-08-07T08:30:17;96900.41;;;14.84;65.90
57232;BME280;43488;46.934;8.276;2023-08-07T08:32:45;96895.69;;;14.86;66.05
57232;BME280;43488;46.934;8.276;2023-08-07T08:35:12;96901.97;;;15.03;66.96
57232;BME280;43488;46.934;8.276;2023-08-07T08:37:53;96905.22;;;15.17;65.13
57232;BME280;43488;46.934;8.276;2023-08-07T08:40:20;96891.53;;;15.20;62.66
57232;BME280;43488;46.934;8.276;2023-08-07T08:42:48;96894.53;;;15.23;62.00
57232;BME280;43488;46.934;8.276;2023-08-07T08:45:15;96903.44;;;15.29;61.44
57232;BME280;43488;46.934;8.276;2023-08-07T08:47:43;96905.28;;;15.40;61.93
57232;BME280;43488;46.934;8.276;2023-08-07T08:50:14;96900.00;;;15.40;61.94
57232;BME280;43488;46.934;8.276;2023-08-07T08:52:44;96901.38;;;15.43;60.16
57232;BME280;43488;46.934;8.276;2023-08-07T08:55:13;96900.47;;;15.49;59.42
57232;BME280;43488;46.934;8.276;2023-08-07T08:57:41;96891.81;;;15.53;60.66
57232;BME280;43488;46.934;8.276;2023-08-07T09:00:09;96891.50;;;15.61;62.46
57232;BME280;43488;46.934;8.276;2023-08-07T09:02:49;96901.06;;;15.62;61.76
57232;BME280;43488;46.934;8.276;2023-08-07T09:05:18;96895.41;;;15.59;61.05
57232;BME280;43488;46.934;8.276;2023-08-07T09:07:49;96890.84;;;15.66;60.99
57232;BME280;43488;46.934;8.276;2023-08-07T09:10:17;96892.53;;;15.72;61.76
57232;BME280;43488;46.934;8.276;2023-08-07T09:13:00;96894.06;;;15.68;59.38
57232;BME280;43488;46.934;8.276;2023-08-07T09:15:30;96898.00;;;15.77;60.05
57232;BME280;43488;46.934;8.276;2023-08-07T09:17:59;96896.13;;;15.78;57.40
57232;BME280;43488;46.934;8.276;2023-08-07T09:20:27;96898.59;;;15.91;58.89
57232;BME280;43488;46.934;8.276;2023-08-07T09:22:55;96900.88;;;15.99;59.40
57232;BME280;43488;46.934;8.276;2023-08-07T09:25:31;96900.19;;;16.04;61.50
57232;BME280;43488;46.934;8.276;2023-08-07T09:28:01;96908.72;;;16.06;62.13
57232;BME280;43488;46.934;8.276;2023-08-07T09:30:33;96907.13;;;15.93;61.70
57232;BME280;43488;46.934;8.276;2023-08-07T09:33:02;96917.16;;;15.91;60.96
57232;BME280;43488;46.934;8.276;2023-08-07T09:35:31;96920.50;;;15.86;60.75
57232;BME280;43488;46.934;8.276;2023-08-07T09:37:59;96914.94;;;15.76;57.82
57232;BME280;43488;46.934;8.276;2023-08-07T09:40:26;96921.75;;;15.72;56.66
57232;BME280;43488;46.934;8.276;2023-08-07T09:42:54;96925.44;;;15.71;56.33
57232;BME280;43488;46.934;8.276;2023-08-07T09:45:26;96926.03;;;15.73;54.22
57232;BME280;43488;46.934;8.276;2023-08-07T09:48:02;96936.44;;;15.75;55.00
57232;BME280;43488;46.934;8.276;2023-08-07T09:50:30;96934.00;;;15.73;56.45
57232;BME280;43488;46.934;8.276;2023-08-07T09:52:59;96932.72;;;15.87;58.77
57232;BME280;43488;46.934;8.276;2023-08-07T09:55:27;96928.13;;;15.95;58.16
57232;BME280;43488;46.934;8.276;2023-08-07T09:57:54;96926.97;;;16.14;59.24
57232;BME280;43488;46.934;8.276;2023-08-07T10:00:22;96932.63;;;16.29;59.14
57232;BME280;43488;46.934;8.276;2023-08-07T10:02:50;96924.88;;;16.28;59.29
57232;BME280;43488;46.934;8.276;2023-08-07T10:05:18;96919.44;;;16.34;60.24
57232;BME280;43488;46.934;8.276;2023-08-07T10:07:46;96923.66;;;16.59;61.15
57232;BME280;43488;46.934;8.276;2023-08-07T10:10:14;96921.00;;;16.70;59.81
57232;BME280;43488;46.934;8.276;2023-08-07T10:12:41;96922.13;;;16.63;58.30
57232;BME280;43488;46.934;8.276;2023-08-07T10:15:09;96915.91;;;16.69;58.66
57232;BME280;43488;46.934;8.276;2023-08-07T10:17:37;96917.53;;;16.70;59.20
57232;BME280;43488;46.934;8.276;2023-08-07T10:20:05;96924.78;;;16.63;60.53
57232;BME280;43488;46.934;8.276;2023-08-07T10:22:35;96926.56;;;16.57;60.50
57232;BME280;43488;46.934;8.276;2023-08-07T10:25:06;96927.59;;;16.56;61.87
57232;BME280;43488;46.934;8.276;2023-08-07T10:27:38;96932.72;;;16.46;60.52
57232;BME280;43488;46.934;8.276;2023-08-07T10:30:11;96927.41;;;16.46;62.47
57232;BME280;43488;46.934;8.276;2023-08-07T10:32:42;96939.28;;;16.43;62.49
57232;BME280;43488;46.934;8.276;2023-08-07T10:35:17;96936.31;;;16.28;60.79
57232;BME280;43488;46.934;8.276;2023-08-07T10:37:52;96936.44;;;16.21;59.58
57232;BME280;43488;46.934;8.276;2023-08-07T10:40:22;96940.38;;;16.19;61.33
57232;BME280;43488;46.934;8.276;2023-08-07T10:43:11;96947.38;;;16.25;64.96
57232;BME280;43488;46.934;8.276;2023-08-07T10:45:39;96943.34;;;16.23;65.45
57232;BME280;43488;46.934;8.276;2023-08-07T10:48:12;96950.38;;;16.17;66.48
57232;BME280;43488;46.934;8.276;2023-08-07T10:53:39;96933.78;;;16.10;64.77
57232;BME280;43488;46.934;8.276;2023-08-07T10:56:14;96940.47;;;16.01;64.42
57232;BME280;43488;46.934;8.276;2023-08-07T10:58:42;96944.28;;;16.05;63.78
57232;BME280;43488;46.934;8.276;2023-08-07T11:04:10;96931.94;;;16.10;59.70
57232;BME280;43488;46.934;8.276;2023-08-07T11:06:39;96940.69;;;16.34;61.00
57232;BME280;43488;46.934;8.276;2023-08-07T11:09:09;96948.88;;;16.44;59.50
57232;BME280;43488;46.934;8.276;2023-08-07T11:11:42;96930.00;;;16.69;58.56
57232;BME280;43488;46.934;8.276;2023-08-07T11:14:15;96927.75;;;16.90;58.17
57232;BME280;43488;46.934;8.276;2023-08-07T11:16:44;96926.91;;;17.01;58.92
57232;BME280;43488;46.934;8.276;2023-08-07T11:19:15;96926.94;;;17.18;58.83
57232;BME280;43488;46.934;8.276;2023-08-07T11:21:44;96918.97;;;17.18;58.05
57232;BME280;43488;46.934;8.276;2023-08-07T11:24:16;96916.72;;;17.26;56.32
57232;BME280;43488;46.934;8.276;2023-08-07T11:26:46;96918.84;;;17.41;57.90
57232;BME280;43488;46.934;8.276;2023-08-07T11:29:20;96916.09;;;17.53;57.25
57232;BME280;43488;46.934;8.276;2023-08-07T11:31:48;96913.34;;;17.64;57.77
57232;BME280;43488;46.934;8.276;2023-08-07T11:34:17;96912.34;;;17.82;57.25
57232;BME280;43488;46.934;8.276;2023-08-07T11:36:46;96912.03;;;17.96;56.25
57232;BME280;43488;46.934;8.276;2023-08-07T11:39:14;96903.22;;;17.95;54.06
57232;BME280;43488;46.934;8.276;2023-08-07T11:41:42;96929.63;;;17.80;52.81
57232;BME280;43488;46.934;8.276;2023-08-07T11:44:09;96919.38;;;17.72;51.75
57232;BME280;43488;46.934;8.276;2023-08-07T11:46:37;96923.38;;;17.57;51.66
57232;BME280;43488;46.934;8.276;2023-08-07T11:49:04;96922.16;;;17.48;51.42
57232;BME280;43488;46.934;8.276;2023-08-07T11:51:32;96935.38;;;17.43;50.83
57232;BME280;43488;46.934;8.276;2023-08-07T11:54:01;96936.56;;;17.35;52.21
57232;BME280;43488;46.934;8.276;2023-08-07T11:56:31;96943.75;;;17.35;51.50
57232;BME280;43488;46.934;8.276;2023-08-07T11:59:02;96947.56;;;17.39;52.08
57232;BME280;43488;46.934;8.276;2023-08-07T12:01:30;96931.94;;;17.59;53.32
57232;BME280;43488;46.934;8.276;2023-08-07T12:06:32;96908.31;;;18.35;50.96
57232;BME280;43488;46.934;8.276;2023-08-07T12:09:01;96905.13;;;18.77;52.61
57232;BME280;43488;46.934;8.276;2023-08-07T12:11:30;96897.78;;;19.16;50.54
57232;BME280;43488;46.934;8.276;2023-08-07T12:14:00;96881.41;;;19.99;47.02
57232;BME280;43488;46.934;8.276;2023-08-07T12:16:36;96856.66;;;22.93;41.01
57232;BME280;43488;46.934;8.276;2023-08-07T12:19:04;96897.91;;;19.91;44.52
57232;BME280;43488;46.934;8.276;2023-08-07T12:21:31;96899.16;;;19.19;46.12
57232;BME280;43488;46.934;8.276;2023-08-07T12:24:00;96889.88;;;18.99;44.29
57232;BME280;43488;46.934;8.276;2023-08-07T12:26:28;96890.66;;;18.95;44.87
57232;BME280;43488;46.934;8.276;2023-08-07T12:28:55;96893.88;;;18.97;46.08
57232;BME280;43488;46.934;8.276;2023-08-07T12:31:22;96896.78;;;18.95;46.02
57232;BME280;43488;46.934;8.276;2023-08-07T12:33:50;96894.75;;;18.81;45.24
57232;BME280;43488;46.934;8.276;2023-08-07T12:36:17;96897.44;;;19.08;44.50
57232;BME280;43488;46.934;8.276;2023-08-07T12:38:44;96895.75;;;19.01;46.26
57232;BME280;43488;46.934;8.276;2023-08-07T12:41:11;96897.59;;;18.96;44.90
57232;BME280;43488;46.934;8.276;2023-08-07T12:43:39;96901.00;;;19.18;45.18
57232;BME280;43488;46.934;8.276;2023-08-07T12:46:06;96899.81;;;19.58;45.82
57232;BME280;43488;46.934;8.276;2023-08-07T12:48:34;96895.91;;;19.71;44.54
57232;BME280;43488;46.934;8.276;2023-08-07T12:51:02;96894.47;;;19.31;45.54
57232;BME280;43488;46.934;8.276;2023-08-07T12:53:29;96902.84;;;19.45;44.75
57232;BME280;43488;46.934;8.276;2023-08-07T12:55:58;96888.06;;;19.59;45.02
57232;BME280;43488;46.934;8.276;2023-08-07T12:58:25;96893.66;;;19.57;45.09
57232;BME280;43488;46.934;8.276;2023-08-07T13:00:56;96882.63;;;19.49;43.29
57232;BME280;43488;46.934;8.276;2023-08-07T13:03:24;96891.50;;;19.27;43.06
57232;BME280;43488;46.934;8.276;2023-08-07T13:05:52;96897.88;;;19.26;44.26
57232;BME280;43488;46.934;8.276;2023-08-07T13:08:20;96899.28;;;19.02;44.10
57232;BME280;43488;46.934;8.276;2023-08-07T13:10:47;96888.53;;;18.97;44.38